createdAt,value
2019-01-19T00:02:27.019Z,34.87
2019-01-19T00:05:14.637Z,32.23
2019-01-19T00:08:22.724Z,30.67
2019-01-19T00:11:04.671Z,27.73
2019-01-19T00:14:12.723Z,28.60
2019-01-19T00:17:20.043Z,38.33
2019-01-19T00:20:16.766Z,39.77
2019-01-19T00:23:24.831Z,35.10
2019-01-19T00:26:25.079Z,33.27
2019-01-19T00:29:01.023Z,33.60
2019-01-19T00:32:08.274Z,33.23
2019-01-19T00:34:50.619Z,30.80
2019-01-19T00:37:57.963Z,30.57
2019-01-19T00:41:05.222Z,31.67
2019-01-19T00:44:12.524Z,31.30
2019-01-19T00:47:19.879Z,30.33
2019-01-19T00:49:59.454Z,29.07
2019-01-19T00:52:50.758Z,28.50
2019-01-19T00:55:58.847Z,25.07
2019-01-19T00:59:06.057Z,27.10
2019-01-19T01:02:06.735Z,25.87
2019-01-19T01:05:13.895Z,23.10
2019-01-19T01:08:21.042Z,25.67
2019-01-19T01:11:28.317Z,23.07
2019-01-19T01:14:38.718Z,22.50
2019-01-19T01:17:31.039Z,20.43
2019-01-19T01:20:39.095Z,21.63
2019-01-19T01:23:46.412Z,20.90
2019-01-19T01:26:53.713Z,22.77
2019-01-19T01:30:01.023Z,24.87
2019-01-19T01:32:35.999Z,27.87
2019-01-19T01:35:43.262Z,27.47
2019-01-19T01:38:50.504Z,24.23
2019-01-19T01:41:57.754Z,21.23
2019-01-19T01:44:48.799Z,24.80
2019-01-19T01:47:56.057Z,25.13
2019-01-19T01:50:56.816Z,27.13
2019-01-19T01:54:04.074Z,25.67
2019-01-19T01:56:32.497Z,23.93
2019-01-19T01:59:40.548Z,25.07
2019-01-19T02:02:50.772Z,25.63
2019-01-19T02:05:51.887Z,28.50
2019-01-19T02:12:39.595Z,30.77
2019-01-19T02:15:34.244Z,27.30
2019-01-19T02:18:27.198Z,24.40
2019-01-19T02:21:35.252Z,21.33
2019-01-19T02:24:42.559Z,20.63
2019-01-19T02:27:50.624Z,18.93
2019-01-19T02:30:57.824Z,17.77
2019-01-19T02:34:05.894Z,16.87
2019-01-19T02:37:13.060Z,16.33
2019-01-19T02:40:13.300Z,16.50
2019-01-19T02:43:20.561Z,16.53
2019-01-19T02:46:27.975Z,17.90
2019-01-19T02:49:36.471Z,19.20
2019-01-19T02:52:31.225Z,17.30
2019-01-19T02:55:39.179Z,18.50
2019-01-19T03:02:07.251Z,19.47
2019-01-19T03:04:57.533Z,20.03
2019-01-19T03:07:49.530Z,19.27
2019-01-19T03:10:57.574Z,20.00
2019-01-19T03:13:54.662Z,19.80
2019-01-19T03:16:53.015Z,19.53
2019-01-19T03:20:00.309Z,18.93
2019-01-19T03:22:53.622Z,19.97
2019-01-19T03:26:00.781Z,22.73
2019-01-19T03:29:08.031Z,24.73
2019-01-19T03:32:15.189Z,23.97
2019-01-19T03:35:22.443Z,24.20
2019-01-19T03:38:26.711Z,25.67
2019-01-19T03:41:34.157Z,24.43
2019-01-19T03:44:33.539Z,23.60
2019-01-19T03:47:41.588Z,24.67
2019-01-19T03:50:48.899Z,22.80
2019-01-19T03:53:57.130Z,24.00
2019-01-19T03:57:13.297Z,24.20
2019-01-19T04:00:20.708Z,22.83
2019-01-19T04:03:28.769Z,24.80
2019-01-19T04:06:36.021Z,24.53
2019-01-19T04:09:48.297Z,26.13
2019-01-19T04:12:55.652Z,24.70
2019-01-19T04:16:03.016Z,25.83
2019-01-19T04:19:10.364Z,24.40
2019-01-19T04:22:17.623Z,24.40
2019-01-19T04:25:00.473Z,25.17
2019-01-19T04:27:29.016Z,34.53
2019-01-19T04:29:57.636Z,42.43
2019-01-19T04:32:26.946Z,46.03
2019-01-19T04:34:56.262Z,47.90
2019-01-19T04:37:25.612Z,46.07
2019-01-19T04:39:54.927Z,48.17
2019-01-19T04:42:23.663Z,49.07
2019-01-19T04:44:52.180Z,49.80
2019-01-19T04:47:21.505Z,49.33
2019-01-19T04:49:50.025Z,50.33
2019-01-19T04:52:18.561Z,50.53
2019-01-19T04:54:48.497Z,47.03
2019-01-19T04:57:37.188Z,46.47
2019-01-19T05:03:10.743Z,48.43
2019-01-19T05:05:39.258Z,52.13
2019-01-19T05:08:08.587Z,49.47
2019-01-19T05:10:37.909Z,49.53
2019-01-19T05:13:07.236Z,48.13
2019-01-19T05:15:36.560Z,45.80
2019-01-19T05:23:43.099Z,39.67
2019-01-19T05:26:11.623Z,40.60
2019-01-19T05:28:40.957Z,41.23
2019-01-19T05:31:10.282Z,39.20
2019-01-19T05:33:39.619Z,39.90
2019-01-19T05:36:08.925Z,38.10
2019-01-19T05:38:38.253Z,38.50
2019-01-19T05:41:07.592Z,46.03
2019-01-19T05:43:37.129Z,48.10
2019-01-19T05:46:06.557Z,51.03
2019-01-19T05:48:35.083Z,51.50
2019-01-19T05:51:04.409Z,52.77
2019-01-19T05:53:32.939Z,56.87
2019-01-19T05:56:02.263Z,53.03
2019-01-19T05:58:31.594Z,52.97
2019-01-19T06:01:00.111Z,51.67
2019-01-19T06:03:29.464Z,50.30
2019-01-19T06:05:59.117Z,54.10
2019-01-19T06:08:28.451Z,57.20
2019-01-19T06:10:57.774Z,61.63
2019-01-19T06:13:26.300Z,60.00
2019-01-19T06:15:54.920Z,55.60
2019-01-19T06:18:23.494Z,50.10
2019-01-19T06:20:52.973Z,46.20
2019-01-19T06:23:22.503Z,42.93
2019-01-19T06:25:51.023Z,44.00
2019-01-19T06:28:20.429Z,43.33
2019-01-19T06:30:49.739Z,42.87
2019-01-19T06:33:18.262Z,42.60
2019-01-19T06:35:46.694Z,42.17
2019-01-19T06:38:16.045Z,41.77
2019-01-19T06:40:45.372Z,44.90
2019-01-19T06:43:14.692Z,44.70
2019-01-19T06:45:44.032Z,40.53
2019-01-19T06:48:13.342Z,39.27
2019-01-19T06:50:42.674Z,41.67
2019-01-19T06:53:12.005Z,44.60
2019-01-19T06:55:41.364Z,46.27
2019-01-19T06:58:09.988Z,54.10
2019-01-19T07:00:38.600Z,61.53
2019-01-19T07:03:07.938Z,61.03
2019-01-19T07:05:37.273Z,56.93
2019-01-19T07:08:06.590Z,51.17
2019-01-19T07:10:35.915Z,49.57
2019-01-19T07:13:05.337Z,49.57
2019-01-19T07:15:34.649Z,46.80
2019-01-19T07:18:04.012Z,46.00
2019-01-19T07:20:32.557Z,50.83
2019-01-19T07:23:01.906Z,53.63
2019-01-19T07:25:30.436Z,60.83
2019-01-19T07:27:59.795Z,62.17
2019-01-19T07:30:29.122Z,67.60
2019-01-19T07:32:58.890Z,67.73
2019-01-19T07:35:28.320Z,82.23
2019-01-19T07:37:57.650Z,81.83
2019-01-19T07:40:27.019Z,91.03
2019-01-19T07:45:54.870Z,100.67
2019-01-19T07:48:24.204Z,98.53
2019-01-19T07:50:53.560Z,91.83
2019-01-19T07:53:22.292Z,90.93
2019-01-19T07:55:51.724Z,86.43
2019-01-19T08:01:04.282Z,88.20
2019-01-19T08:06:36.856Z,85.17
2019-01-19T08:09:10.262Z,96.20
2019-01-19T08:11:39.703Z,102.90
2019-01-19T08:14:09.043Z,115.40
2019-01-19T08:16:38.489Z,126.97
2019-01-19T08:19:06.972Z,134.03
2019-01-19T08:21:35.588Z,126.87
2019-01-19T08:24:04.175Z,116.00
2019-01-19T08:26:33.508Z,103.87
2019-01-19T08:31:46.035Z,81.20
2019-01-19T08:34:15.356Z,79.90
2019-01-19T08:36:43.878Z,79.97
2019-01-19T08:39:13.222Z,75.37
2019-01-19T08:41:42.713Z,72.97
2019-01-19T08:44:12.029Z,73.40
2019-01-19T08:46:41.351Z,72.50
2019-01-19T08:49:10.683Z,68.93
2019-01-19T08:51:39.811Z,67.30
2019-01-19T08:54:10.022Z,71.97
2019-01-19T08:56:38.558Z,76.23
2019-01-19T08:59:07.089Z,76.13
2019-01-19T09:01:36.406Z,69.33
2019-01-19T09:04:05.570Z,71.33
2019-01-19T09:06:35.700Z,77.00
2019-01-19T09:12:10.617Z,83.33
2019-01-19T09:14:40.987Z,80.37
2019-01-19T09:17:11.006Z,85.00
2019-01-19T09:19:40.538Z,78.60
2019-01-19T09:22:29.496Z,81.40
2019-01-19T09:24:58.847Z,90.93
2019-01-19T09:27:27.373Z,86.90
2019-01-19T09:29:56.738Z,79.80
2019-01-19T09:32:25.397Z,81.03
2019-01-19T09:34:54.740Z,66.63
2019-01-19T09:37:24.077Z,65.43
2019-01-19T09:39:52.610Z,63.53
2019-01-19T09:42:21.052Z,58.30
2019-01-19T09:44:50.375Z,50.40
2019-01-19T09:47:18.918Z,50.47
2019-01-19T09:49:48.255Z,45.33
2019-01-19T09:52:21.301Z,41.83
2019-01-19T09:54:48.029Z,40.23
2019-01-19T09:57:16.562Z,29.80
2019-01-19T09:59:45.878Z,35.13
2019-01-19T10:02:14.406Z,29.03
2019-01-19T10:04:43.736Z,24.73
2019-01-19T10:07:12.500Z,20.53
2019-01-19T10:09:42.305Z,21.60
2019-01-19T10:12:10.971Z,19.90
2019-01-19T10:14:40.737Z,27.83
2019-01-19T10:17:10.095Z,19.87
2019-01-19T10:19:39.432Z,20.93
2019-01-19T10:22:08.884Z,21.40
2019-01-19T10:24:38.219Z,20.90
2019-01-19T10:27:07.561Z,21.70
2019-01-19T10:29:36.204Z,20.97
2019-01-19T10:32:04.646Z,21.10
2019-01-19T10:34:33.175Z,21.30
2019-01-19T10:37:02.619Z,22.60
2019-01-19T10:39:31.950Z,23.70
2019-01-19T10:42:01.276Z,20.43
2019-01-19T10:44:29.813Z,18.83
2019-01-19T10:46:58.339Z,17.33
2019-01-19T10:49:26.868Z,15.93
2019-01-19T10:51:59.452Z,17.30
2019-01-19T10:54:45.566Z,17.20
2019-01-19T10:57:14.898Z,16.00
2019-01-19T10:59:44.246Z,17.57
2019-01-19T11:02:13.576Z,18.23
2019-01-19T11:04:43.066Z,18.37
2019-01-19T11:07:12.523Z,17.40
2019-01-19T11:09:41.862Z,17.47
2019-01-19T11:12:10.400Z,19.37
2019-01-19T11:14:39.796Z,20.47
2019-01-19T11:17:09.136Z,22.83
2019-01-19T11:19:38.479Z,55.93
2019-01-19T11:22:07.231Z,43.47
2019-01-19T11:24:35.757Z,57.57
2019-01-19T11:27:05.104Z,63.83
2019-01-19T11:29:34.432Z,72.60
2019-01-19T11:32:04.022Z,73.83
2019-01-19T11:34:33.359Z,62.10
2019-01-19T11:37:01.844Z,57.90
2019-01-19T11:39:30.471Z,71.60
2019-01-19T11:41:59.794Z,69.53
2019-01-19T11:44:28.245Z,59.90
2019-01-19T11:46:57.658Z,57.67
2019-01-19T11:49:26.997Z,48.77
2019-01-19T11:51:56.360Z,45.00
2019-01-19T11:54:25.883Z,42.50
2019-01-19T11:56:54.415Z,42.37
2019-01-19T11:59:23.755Z,39.57
2019-01-19T12:01:53.088Z,38.10
2019-01-19T12:04:21.520Z,36.63
2019-01-19T12:06:49.937Z,36.63
2019-01-19T12:09:18.479Z,44.73
2019-01-19T12:11:47.869Z,47.27
2019-01-19T12:14:17.206Z,81.93
2019-01-19T12:16:46.523Z,139.37
2019-01-19T12:19:15.857Z,63.83
2019-01-19T12:21:44.862Z,51.87
2019-01-19T12:24:13.513Z,43.73
2019-01-19T12:26:42.052Z,77.43
2019-01-19T12:29:10.488Z,51.17
2019-01-19T12:31:39.129Z,48.10
2019-01-19T12:34:08.485Z,47.93
2019-01-19T12:36:36.911Z,48.07
2019-01-19T12:39:07.683Z,47.20
2019-01-19T12:41:36.324Z,49.97
2019-01-19T12:44:06.526Z,67.23
2019-01-19T12:46:35.073Z,64.43
2019-01-19T12:49:04.802Z,61.87
2019-01-19T12:51:33.345Z,59.80
2019-01-19T12:54:02.784Z,60.70
2019-01-19T12:56:31.316Z,64.47
2019-01-19T12:59:00.667Z,70.27
2019-01-19T13:01:30.005Z,65.77
2019-01-19T13:03:59.448Z,58.03
2019-01-19T13:07:07.498Z,54.33
2019-01-19T13:09:39.459Z,51.33
2019-01-19T13:12:31.400Z,52.70
2019-01-19T13:15:49.224Z,56.03
2019-01-19T13:18:57.894Z,58.00
2019-01-19T13:22:05.231Z,55.30
2019-01-19T13:24:57.724Z,58.23
2019-01-19T13:28:04.972Z,52.43
2019-01-19T13:31:12.136Z,50.03
2019-01-19T13:34:19.557Z,49.63
2019-01-19T13:37:14.969Z,46.73
2019-01-19T13:40:07.215Z,46.03
2019-01-19T13:43:10.275Z,46.63
2019-01-19T13:46:01.412Z,47.43
2019-01-19T13:49:09.460Z,46.23
2019-01-19T13:52:09.413Z,44.70
2019-01-19T13:55:16.597Z,45.33
2019-01-19T13:58:16.413Z,47.37
2019-01-19T14:01:24.462Z,48.53
2019-01-19T14:04:31.819Z,52.07
2019-01-19T14:07:34.249Z,55.60
2019-01-19T14:10:30.528Z,57.10
2019-01-19T14:13:37.784Z,73.60
2019-01-19T14:16:45.143Z,71.83
2019-01-19T14:19:52.452Z,64.50
2019-01-19T14:23:00.516Z,59.20
2019-01-19T14:26:07.660Z,57.30
2019-01-19T14:29:14.906Z,52.20
2019-01-19T14:32:22.230Z,52.03
2019-01-19T14:35:29.545Z,69.00
2019-01-19T14:38:33.848Z,68.87
2019-01-19T14:41:36.437Z,62.13
2019-01-19T14:44:44.488Z,66.37
2019-01-19T14:47:51.743Z,68.27
2019-01-19T14:50:59.013Z,59.37
2019-01-19T14:53:54.152Z,73.43
2019-01-19T14:56:53.957Z,72.43
2019-01-19T14:59:30.848Z,73.10
2019-01-19T15:02:38.899Z,97.10
2019-01-19T15:05:30.608Z,98.13
2019-01-19T15:08:25.353Z,98.73
2019-01-19T15:11:26.435Z,95.53
2019-01-19T15:14:33.958Z,96.83
2019-01-19T15:17:30.644Z,97.27
2019-01-19T15:20:31.501Z,91.97
2019-01-19T15:23:39.556Z,84.70
2019-01-19T15:26:46.806Z,85.10
2019-01-19T15:29:53.980Z,86.33
2019-01-19T15:32:46.820Z,90.47
2019-01-19T15:35:54.164Z,92.90
2019-01-19T15:38:53.222Z,87.70
2019-01-19T15:42:00.469Z,77.40
2019-01-19T15:45:07.722Z,93.97
2019-01-19T15:48:15.190Z,95.83
2019-01-19T15:51:14.090Z,97.13
2019-01-19T15:54:22.198Z,87.37
2019-01-19T15:57:30.255Z,96.60
2019-01-19T16:00:26.712Z,97.63
2019-01-19T16:03:34.431Z,95.27
2019-01-19T16:06:43.591Z,94.93
2019-01-19T16:09:50.758Z,98.10
2019-01-19T16:12:46.101Z,92.00
2019-01-19T16:15:47.307Z,86.63
2019-01-19T16:18:55.434Z,83.23
2019-01-19T16:22:02.797Z,78.47
2019-01-19T16:25:10.147Z,65.03
2019-01-19T16:28:17.563Z,67.10
2019-01-19T16:31:25.621Z,61.97
2019-01-19T16:34:32.984Z,61.03
2019-01-19T16:37:40.241Z,58.00
2019-01-19T16:40:47.671Z,52.30
2019-01-19T16:43:39.194Z,50.93
2019-01-19T16:46:31.092Z,52.50
2019-01-19T16:49:14.752Z,50.23
2019-01-19T16:52:22.828Z,50.97
2019-01-19T16:55:30.504Z,46.47
2019-01-19T16:58:37.771Z,48.37
2019-01-19T17:01:45.031Z,45.17
2019-01-19T17:04:55.350Z,45.23
2019-01-19T17:08:03.408Z,44.60
2019-01-19T17:11:10.769Z,46.83
2019-01-19T17:14:18.019Z,44.77
2019-01-19T17:17:03.350Z,45.00
2019-01-19T17:20:10.670Z,44.23
2019-01-19T17:23:18.801Z,42.93
2019-01-19T17:26:02.818Z,39.87
2019-01-19T17:29:10.158Z,43.80
2019-01-19T17:31:48.194Z,41.50
2019-01-19T17:34:40.355Z,40.70
2019-01-19T17:37:48.412Z,40.43
2019-01-19T17:40:55.665Z,43.97
2019-01-19T17:44:03.078Z,42.30
2019-01-19T17:47:11.134Z,43.20
2019-01-19T17:50:18.378Z,48.00
2019-01-19T17:53:18.875Z,47.67
2019-01-19T17:56:26.189Z,42.73
2019-01-19T17:59:27.234Z,35.63
2019-01-19T18:02:34.586Z,34.97
2019-01-19T18:05:41.839Z,37.20
2019-01-19T18:08:49.295Z,36.97
2019-01-19T18:11:56.700Z,40.77
2019-01-19T18:15:04.746Z,43.00
2019-01-19T18:17:57.544Z,47.37
2019-01-19T18:21:04.747Z,44.30
2019-01-19T18:23:52.770Z,40.10
2019-01-19T18:26:53.552Z,40.57
2019-01-19T18:30:01.596Z,34.07
2019-01-19T18:33:08.866Z,32.83
2019-01-19T18:36:16.123Z,42.77
2019-01-19T18:39:20.497Z,51.47
2019-01-19T18:42:27.746Z,42.33
2019-01-19T18:45:35.054Z,45.43
2019-01-19T18:48:27.990Z,45.83
2019-01-19T18:51:36.165Z,44.27
2019-01-19T18:54:37.350Z,41.80
2019-01-19T18:57:45.398Z,41.10
2019-01-19T19:00:34.649Z,36.97
2019-01-19T19:03:42.758Z,35.13
2019-01-19T19:06:50.036Z,37.90
2019-01-19T19:09:38.129Z,36.97
2019-01-19T19:12:46.177Z,36.60
2019-01-19T19:15:55.277Z,35.40
2019-01-19T19:18:46.126Z,35.43
2019-01-19T19:21:42.045Z,34.60
2019-01-19T19:24:49.340Z,36.63
2019-01-19T19:27:56.541Z,35.73
2019-01-19T19:31:03.860Z,35.07
2019-01-19T19:34:11.217Z,37.57
2019-01-19T19:37:18.566Z,38.37
2019-01-19T19:40:19.088Z,36.67
2019-01-19T19:43:27.137Z,37.47
2019-01-19T19:46:28.096Z,34.93
2019-01-19T19:49:36.221Z,37.70
2019-01-19T19:52:05.827Z,37.87
2019-01-19T19:54:35.325Z,38.10
2019-01-19T19:57:04.394Z,35.27
2019-01-19T19:59:32.909Z,37.33
2019-01-19T20:02:02.242Z,36.93
2019-01-19T20:07:33.958Z,37.20
2019-01-19T20:13:05.319Z,40.40
2019-01-19T20:15:34.646Z,43.27
2019-01-19T20:18:04.357Z,41.33
2019-01-19T20:20:33.718Z,45.13
2019-01-19T20:23:03.161Z,47.57
2019-01-19T20:25:32.475Z,44.83
2019-01-19T20:28:01.907Z,43.30
2019-01-19T20:30:31.240Z,47.90
2019-01-19T20:33:00.595Z,44.97
2019-01-19T20:35:29.224Z,40.63
2019-01-19T20:37:57.873Z,41.87
2019-01-19T20:40:26.410Z,37.90
2019-01-19T20:42:55.736Z,37.90
2019-01-19T20:45:25.061Z,37.30
2019-01-19T20:47:54.385Z,34.63
2019-01-19T20:50:23.709Z,35.77
2019-01-19T20:52:53.048Z,38.37
2019-01-19T20:55:22.493Z,37.50
2019-01-19T20:57:51.830Z,36.83
2019-01-19T21:00:21.439Z,38.10
2019-01-19T21:02:49.967Z,38.50
2019-01-19T21:05:19.300Z,35.73
2019-01-19T21:07:48.664Z,36.23
2019-01-19T21:10:17.986Z,35.90
2019-01-19T21:12:47.327Z,39.43
2019-01-19T21:15:16.760Z,38.37
2019-01-19T21:17:46.076Z,38.80
2019-01-19T21:20:15.413Z,35.57
2019-01-19T21:22:44.818Z,36.73
2019-01-19T21:25:14.375Z,36.47
2019-01-19T21:27:43.699Z,35.77
2019-01-19T21:30:12.843Z,37.57
2019-01-19T21:32:41.463Z,36.80
2019-01-19T21:35:11.201Z,36.63
2019-01-19T21:37:40.525Z,37.63
2019-01-19T21:43:12.757Z,33.57
2019-01-19T21:45:42.077Z,33.17
2019-01-19T21:48:10.605Z,34.50
2019-01-19T21:50:40.036Z,35.63
2019-01-19T21:53:09.368Z,34.80
2019-01-19T21:55:38.790Z,35.73
2019-01-19T21:58:08.111Z,34.17
2019-01-19T22:00:37.431Z,34.87
2019-01-19T22:03:06.770Z,37.70
2019-01-19T22:05:35.183Z,35.90
2019-01-19T22:08:04.605Z,37.03
2019-01-19T22:10:33.243Z,36.03
2019-01-19T22:13:02.569Z,35.43
2019-01-19T22:15:31.896Z,35.33
2019-01-19T22:18:01.221Z,37.10
2019-01-19T22:20:30.581Z,34.03
2019-01-19T22:22:59.930Z,33.83
2019-01-19T22:25:29.263Z,36.13
2019-01-19T22:27:58.589Z,33.60
2019-01-19T22:30:27.921Z,34.73
2019-01-19T22:32:57.358Z,36.07
2019-01-19T22:38:22.982Z,36.93
2019-01-19T22:40:53.737Z,39.00
2019-01-19T22:43:41.536Z,38.77
2019-01-19T22:46:10.939Z,37.80
2019-01-19T22:48:40.270Z,36.67
2019-01-19T22:51:11.310Z,36.93
2019-01-19T22:53:58.820Z,36.60
2019-01-19T22:56:28.147Z,39.70
2019-01-19T22:58:56.571Z,38.37
2019-01-19T23:02:04.629Z,41.67
2019-01-19T23:04:33.138Z,38.40
2019-01-19T23:07:02.466Z,38.83
2019-01-19T23:09:31.783Z,34.77
2019-01-19T23:12:01.207Z,35.60
2019-01-19T23:14:31.432Z,33.47
2019-01-19T23:16:59.861Z,34.30
2019-01-19T23:19:29.306Z,35.00
2019-01-19T23:21:58.605Z,35.33
2019-01-19T23:24:27.933Z,35.00
2019-01-19T23:27:16.706Z,35.47
2019-01-19T23:29:45.434Z,34.13
2019-01-19T23:32:14.755Z,34.77
2019-01-19T23:34:44.076Z,33.07
2019-01-19T23:37:13.398Z,34.33
2019-01-19T23:39:42.751Z,36.20
2019-01-19T23:42:11.160Z,33.23
2019-01-19T23:44:39.688Z,34.33
2019-01-19T23:47:09.013Z,34.40
2019-01-19T23:49:38.344Z,35.00
2019-01-19T23:52:07.771Z,34.27
2019-01-19T23:54:37.109Z,32.53
2019-01-19T23:57:06.430Z,34.37
2019-01-19T23:59:34.853Z,33.83
